sensor_id;sensor_type;location;lat;lon;timestamp;pressure;altitude;pressure_sealevel;temperature;humidity
5996;BME280;3026;53.612;7.278;2023-06-26T00:01:03;101147.69;;;23.37;100.00
5996;BME280;3026;53.612;7.278;2023-06-26T00:03:31;101162.09;;;23.34;100.00
5996;BME280;3026;53.612;7.278;2023-06-26T00:05:58;101153.16;;;23.32;100.00
5996;BME280;3026;53.612;7.278;2023-06-26T00:08:26;101138.41;;;23.31;100.00
5996;BME280;3026;53.612;7.278;2023-06-26T00:10:53;101133.09;;;23.29;100.00
5996;BME280;3026;53.612;7.278;2023-06-26T00:13:23;101137.81;;;23.29;100.00
5996;BME280;3026;53.612;7.278;2023-06-26T00:15:50;101124.19;;;23.27;100.00
5996;BME280;3026;53.612;7.278;2023-06-26T00:18:17;101125.25;;;23.26;100.00
5996;BME280;3026;53.612;7.278;2023-06-26T00:20:44;101118.25;;;23.24;100.00
5996;BME280;3026;53.612;7.278;2023-06-26T00:23:11;101119.00;;;23.19;100.00
5996;BME280;3026;53.612;7.278;2023-06-26T00:25:38;101127.84;;;23.16;100.00
5996;BME280;3026;53.612;7.278;2023-06-26T00:28:05;101115.00;;;23.15;100.00
5996;BME280;3026;53.612;7.278;2023-06-26T00:30:33;101107.75;;;23.14;100.00
5996;BME280;3026;53.612;7.278;2023-06-26T00:33:00;101105.22;;;23.13;100.00
5996;BME280;3026;53.612;7.278;2023-06-26T00:35:27;101107.44;;;23.11;100.00
5996;BME280;3026;53.612;7.278;2023-06-26T00:37:54;101110.47;;;23.09;100.00
5996;BME280;3026;53.612;7.278;2023-06-26T00:40:21;101113.75;;;23.06;100.00
5996;BME280;3026;53.612;7.278;2023-06-26T00:42:48;101104.81;;;23.04;100.00
5996;BME280;3026;53.612;7.278;2023-06-26T00:45:14;101109.75;;;23.02;100.00
5996;BME280;3026;53.612;7.278;2023-06-26T00:47:43;101096.34;;;22.99;100.00
5996;BME280;3026;53.612;7.278;2023-06-26T00:50:09;101098.56;;;22.97;100.00
5996;BME280;3026;53.612;7.278;2023-06-26T00:52:36;101100.50;;;22.96;100.00
5996;BME280;3026;53.612;7.278;2023-06-26T00:55:04;101096.28;;;22.94;100.00
5996;BME280;3026;53.612;7.278;2023-06-26T00:57:31;101091.81;;;22.93;100.00
5996;BME280;3026;53.612;7.278;2023-06-26T00:59:58;101082.25;;;22.89;100.00
5996;BME280;3026;53.612;7.278;2023-06-26T01:02:26;101086.13;;;22.88;100.00
5996;BME280;3026;53.612;7.278;2023-06-26T01:05:01;101076.34;;;22.85;100.00
5996;BME280;3026;53.612;7.278;2023-06-26T01:07:32;101063.19;;;22.81;100.00
5996;BME280;3026;53.612;7.278;2023-06-26T01:10:02;101068.75;;;22.81;100.00
5996;BME280;3026;53.612;7.278;2023-06-26T01:12:30;101063.66;;;22.78;100.00
5996;BME280;3026;53.612;7.278;2023-06-26T01:14:57;101060.28;;;22.76;100.00
5996;BME280;3026;53.612;7.278;2023-06-26T01:17:24;101062.47;;;22.74;100.00
5996;BME280;3026;53.612;7.278;2023-06-26T01:19:53;101052.44;;;22.73;100.00
5996;BME280;3026;53.612;7.278;2023-06-26T01:22:30;101054.63;;;22.70;100.00
5996;BME280;3026;53.612;7.278;2023-06-26T01:25:03;101050.66;;;22.66;100.00
5996;BME280;3026;53.612;7.278;2023-06-26T01:27:38;101046.44;;;22.64;100.00
5996;BME280;3026;53.612;7.278;2023-06-26T01:30:07;101045.84;;;22.62;100.00
5996;BME280;3026;53.612;7.278;2023-06-26T01:32:34;101038.84;;;22.59;100.00
5996;BME280;3026;53.612;7.278;2023-06-26T01:35:02;101048.28;;;22.58;100.00
5996;BME280;3026;53.612;7.278;2023-06-26T01:37:29;101030.38;;;22.54;100.00
5996;BME280;3026;53.612;7.278;2023-06-26T01:39:55;101032.59;;;22.52;100.00
5996;BME280;3026;53.612;7.278;2023-06-26T01:42:22;101029.22;;;22.50;100.00
5996;BME280;3026;53.612;7.278;2023-06-26T01:44:51;101029.72;;;22.47;100.00
5996;BME280;3026;53.612;7.278;2023-06-26T01:47:21;101019.06;;;22.44;100.00
5996;BME280;3026;53.612;7.278;2023-06-26T01:49:53;101021.25;;;22.42;100.00
5996;BME280;3026;53.612;7.278;2023-06-26T01:52:26;101016.19;;;22.39;100.00
5996;BME280;3026;53.612;7.278;2023-06-26T01:54:58;101017.88;;;22.40;100.00
5996;BME280;3026;53.612;7.278;2023-06-26T01:57:30;101012.84;;;22.37;100.00
5996;BME280;3026;53.612;7.278;2023-06-26T02:00:01;101003.06;;;22.34;100.00
5996;BME280;3026;53.612;7.278;2023-06-26T02:02:28;101010.31;;;22.35;100.00
5996;BME280;3026;53.612;7.278;2023-06-26T02:04:55;100999.66;;;22.32;100.00
5996;BME280;3026;53.612;7.278;2023-06-26T02:07:22;101003.28;;;22.33;100.00
5996;BME280;3026;53.612;7.278;2023-06-26T02:09:49;101002.69;;;22.31;100.00
5996;BME280;3026;53.612;7.278;2023-06-26T02:12:16;100996.53;;;22.29;100.00
5996;BME280;3026;53.612;7.278;2023-06-26T02:14:43;100995.94;;;22.27;100.00
5996;BME280;3026;53.612;7.278;2023-06-26T02:17:11;100995.34;;;22.25;100.00
5996;BME280;3026;53.612;7.278;2023-06-26T02:19:38;100988.59;;;22.21;100.00
5996;BME280;3026;53.612;7.278;2023-06-26T02:22:13;100981.09;;;22.21;100.00
5996;BME280;3026;53.612;7.278;2023-06-26T02:24:40;100993.03;;;22.22;100.00
5996;BME280;3026;53.612;7.278;2023-06-26T02:27:07;100982.69;;;22.17;100.00
5996;BME280;3026;53.612;7.278;2023-06-26T02:29:33;100989.34;;;22.16;100.00
5996;BME280;3026;53.612;7.278;2023-06-26T02:32:00;100980.41;;;22.14;100.00
5996;BME280;3026;53.612;7.278;2023-06-26T02:34:29;100982.59;;;22.12;100.00
5996;BME280;3026;53.612;7.278;2023-06-26T02:36:55;100987.31;;;22.11;100.00
5996;BME280;3026;53.612;7.278;2023-06-26T02:39:24;100981.13;;;22.09;100.00
5996;BME280;3026;53.612;7.278;2023-06-26T02:41:51;100974.97;;;22.07;100.00
5996;BME280;3026;53.612;7.278;2023-06-26T02:44:18;100977.13;;;22.05;100.00
5996;BME280;3026;53.612;7.278;2023-06-26T02:46:44;100966.53;;;22.02;100.00
5996;BME280;3026;53.612;7.278;2023-06-26T02:49:11;100965.69;;;22.02;100.00
5996;BME280;3026;53.612;7.278;2023-06-26T02:51:39;100968.72;;;22.00;100.00
5996;BME280;3026;53.612;7.278;2023-06-26T02:54:06;100963.16;;;22.00;100.00
5996;BME280;3026;53.612;7.278;2023-06-26T02:56:33;100954.72;;;21.95;100.00
5996;BME280;3026;53.612;7.278;2023-06-26T02:59:00;100960.59;;;21.99;100.00
5996;BME280;3026;53.612;7.278;2023-06-26T03:01:26;100949.16;;;21.95;100.00
5996;BME280;3026;53.612;7.278;2023-06-26T03:03:54;100958.06;;;21.97;100.00
5996;BME280;3026;53.612;7.278;2023-06-26T03:06:20;100960.25;;;21.95;100.00
5996;BME280;3026;53.612;7.278;2023-06-26T03:08:49;100959.66;;;21.93;100.00
5996;BME280;3026;53.612;7.278;2023-06-26T03:11:15;100954.59;;;21.90;100.00
5996;BME280;3026;53.612;7.278;2023-06-26T03:13:42;100954.00;;;21.88;100.00
5996;BME280;3026;53.612;7.278;2023-06-26T03:16:09;100945.69;;;21.88;100.00
5996;BME280;3026;53.612;7.278;2023-06-26T03:18:36;100945.91;;;21.87;100.00
5996;BME280;3026;53.612;7.278;2023-06-26T03:21:02;100945.06;;;21.86;100.00
5996;BME280;3026;53.612;7.278;2023-06-26T03:23:29;100936.16;;;21.84;100.00
5996;BME280;3026;53.612;7.278;2023-06-26T03:25:57;100934.47;;;21.83;100.00
5996;BME280;3026;53.612;7.278;2023-06-26T03:28:24;100935.53;;;21.82;100.00
5996;BME280;3026;53.612;7.278;2023-06-26T03:30:51;100940.00;;;21.83;100.00
5996;BME280;3026;53.612;7.278;2023-06-26T03:33:18;100938.31;;;21.82;100.00
5996;BME280;3026;53.612;7.278;2023-06-26T03:35:45;100932.78;;;21.82;100.00
5996;BME280;3026;53.612;7.278;2023-06-26T03:38:11;100929.41;;;21.80;100.00
5996;BME280;3026;53.612;7.278;2023-06-26T03:40:38;100929.41;;;21.80;100.00
5996;BME280;3026;53.612;7.278;2023-06-26T03:43:06;100931.59;;;21.78;100.00
5996;BME280;3026;53.612;7.278;2023-06-26T03:45:33;100927.97;;;21.77;100.00
5996;BME280;3026;53.612;7.278;2023-06-26T03:48:00;100928.81;;;21.78;100.00
5996;BME280;3026;53.612;7.278;2023-06-26T03:50:26;100938.22;;;21.77;100.00
5996;BME280;3026;53.612;7.278;2023-06-26T03:52:53;100923.72;;;21.75;100.00
5996;BME280;3026;53.612;7.278;2023-06-26T03:55:20;100923.13;;;21.73;100.00
5996;BME280;3026;53.612;7.278;2023-06-26T03:57:48;100929.53;;;21.73;100.00
5996;BME280;3026;53.612;7.278;2023-06-26T04:00:17;100928.09;;;21.71;100.00
5996;BME280;3026;53.612;7.278;2023-06-26T04:02:44;100929.78;;;21.72;100.00
5996;BME280;3026;53.612;7.278;2023-06-26T04:05:11;100929.19;;;21.70;100.00
5996;BME280;3026;53.612;7.278;2023-06-26T04:07:38;100933.63;;;21.71;100.00
5996;BME280;3026;53.612;7.278;2023-06-26T04:10:06;100930.88;;;21.71;100.00
5996;BME280;3026;53.612;7.278;2023-06-26T04:12:33;100933.63;;;21.71;100.00
5996;BME280;3026;53.612;7.278;2023-06-26T04:15:00;100937.00;;;21.73;100.00
5996;BME280;3026;53.612;7.278;2023-06-26T04:17:28;100931.47;;;21.73;100.00
5996;BME280;3026;53.612;7.278;2023-06-26T04:19:55;100933.75;;;21.76;100.00
5996;BME280;3026;53.612;7.278;2023-06-26T04:22:21;100926.03;;;21.78;100.00
5996;BME280;3026;53.612;7.278;2023-06-26T04:24:48;100929.41;;;21.80;100.00
5996;BME280;3026;53.612;7.278;2023-06-26T04:27:15;100925.53;;;21.81;100.00
5996;BME280;3026;53.612;7.278;2023-06-26T04:29:42;100927.22;;;21.82;100.00
5996;BME280;3026;53.612;7.278;2023-06-26T04:32:09;100917.81;;;21.83;100.00
5996;BME280;3026;53.612;7.278;2023-06-26T04:34:37;100917.31;;;21.86;100.00
5996;BME280;3026;53.612;7.278;2023-06-26T04:37:06;100904.06;;;21.88;100.00
5996;BME280;3026;53.612;7.278;2023-06-26T04:39:35;100912.97;;;21.90;100.00
5996;BME280;3026;53.612;7.278;2023-06-26T04:42:04;100902.72;;;21.91;100.00
5996;BME280;3026;53.612;7.278;2023-06-26T04:44:31;100910.78;;;21.92;100.00
5996;BME280;3026;53.612;7.278;2023-06-26T04:46:58;100910.28;;;21.95;100.00
5996;BME280;3026;53.612;7.278;2023-06-26T04:49:25;100898.69;;;21.98;100.00
5996;BME280;3026;53.612;7.278;2023-06-26T04:51:54;100895.91;;;21.98;100.00
5996;BME280;3026;53.612;7.278;2023-06-26T04:54:21;100903.25;;;22.04;100.00
5996;BME280;3026;53.612;7.278;2023-06-26T04:56:48;100913.66;;;22.09;100.00
5996;BME280;3026;53.612;7.278;2023-06-26T04:59:15;100918.47;;;22.13;100.00
5996;BME280;3026;53.612;7.278;2023-06-26T05:01:42;100928.59;;;22.20;100.00
5996;BME280;3026;53.612;7.278;2023-06-26T05:04:13;100929.78;;;22.24;100.00
5996;BME280;3026;53.612;7.278;2023-06-26T05:06:40;100931.56;;;22.30;100.00
5996;BME280;3026;53.612;7.278;2023-06-26T05:09:09;100925.63;;;22.38;100.00
5996;BME280;3026;53.612;7.278;2023-06-26T05:11:36;100924.59;;;22.44;100.00
5996;BME280;3026;53.612;7.278;2023-06-26T05:14:03;100927.56;;;22.54;100.00
5996;BME280;3026;53.612;7.278;2023-06-26T05:16:32;100936.09;;;22.64;100.00
5996;BME280;3026;53.612;7.278;2023-06-26T05:19:00;100921.56;;;22.74;100.00
5996;BME280;3026;53.612;7.278;2023-06-26T05:21:27;100925.03;;;22.81;100.00
5996;BME280;3026;53.612;7.278;2023-06-26T05:23:56;100927.06;;;22.86;100.00
5996;BME280;3026;53.612;7.278;2023-06-26T05:26:26;100928.34;;;22.95;100.00
5996;BME280;3026;53.612;7.278;2023-06-26T05:28:53;100923.69;;;23.00;100.00
5996;BME280;3026;53.612;7.278;2023-06-26T05:31:21;100910.72;;;23.06;100.00
5996;BME280;3026;53.612;7.278;2023-06-26T05:33:48;100928.06;;;23.13;100.00
5996;BME280;3026;53.612;7.278;2023-06-26T05:36:16;100932.63;;;23.19;100.00
5996;BME280;3026;53.612;7.278;2023-06-26T05:38:45;100932.78;;;23.29;100.00
5996;BME280;3026;53.612;7.278;2023-06-26T05:41:12;100936.75;;;23.34;100.00
5996;BME280;3026;53.612;7.278;2023-06-26T05:43:41;100935.63;;;23.35;100.00
5996;BME280;3026;53.612;7.278;2023-06-26T05:46:07;100937.31;;;23.36;100.00
5996;BME280;3026;53.612;7.278;2023-06-26T05:48:34;100945.66;;;23.36;100.00
5996;BME280;3026;53.612;7.278;2023-06-26T05:51:02;100952.34;;;23.35;100.00
5996;BME280;3026;53.612;7.278;2023-06-26T05:53:30;100983.53;;;23.37;100.00
5996;BME280;3026;53.612;7.278;2023-06-26T05:55:57;101016.91;;;23.37;100.00
5996;BME280;3026;53.612;7.278;2023-06-26T05:58:26;101005.13;;;23.29;100.00
5996;BME280;3026;53.612;7.278;2023-06-26T06:00:54;100994.94;;;23.18;100.00
5996;BME280;3026;53.612;7.278;2023-06-26T06:03:21;100997.03;;;23.11;100.00
5996;BME280;3026;53.612;7.278;2023-06-26T06:05:48;100987.91;;;22.99;100.00
5996;BME280;3026;53.612;7.278;2023-06-26T06:08:15;101001.88;;;22.87;100.00
5996;BME280;3026;53.612;7.278;2023-06-26T06:10:41;100991.75;;;22.81;100.00
5996;BME280;3026;53.612;7.278;2023-06-26T06:13:08;100994.06;;;22.73;100.00
5996;BME280;3026;53.612;7.278;2023-06-26T06:15:35;100987.63;;;22.55;100.00
5996;BME280;3026;53.612;7.278;2023-06-26T06:18:03;100995.16;;;22.43;100.00
5996;BME280;3026;53.612;7.278;2023-06-26T06:20:30;101012.84;;;22.37;100.00
5996;BME280;3026;53.612;7.278;2023-06-26T06:22:57;101012.63;;;22.27;100.00
5996;BME280;3026;53.612;7.278;2023-06-26T06:25:24;101024.47;;;22.10;100.00
5996;BME280;3026;53.612;7.278;2023-06-26T06:27:50;101041.38;;;21.97;100.00
5996;BME280;3026;53.612;7.278;2023-06-26T06:30:17;101047.16;;;21.84;100.00
5996;BME280;3026;53.612;7.278;2023-06-26T06:32:44;101020.75;;;21.70;100.00
5996;BME280;3026;53.612;7.278;2023-06-26T06:35:17;101031.00;;;21.58;100.00
5996;BME280;3026;53.612;7.278;2023-06-26T06:37:44;101036.31;;;21.47;100.00
5996;BME280;3026;53.612;7.278;2023-06-26T06:40:11;101037.38;;;21.35;100.00
5996;BME280;3026;53.612;7.278;2023-06-26T06:42:38;101058.44;;;21.24;100.00
5996;BME280;3026;53.612;7.278;2023-06-26T06:45:06;101058.75;;;21.16;100.00
5996;BME280;3026;53.612;7.278;2023-06-26T06:47:33;101068.75;;;21.05;100.00
5996;BME280;3026;53.612;7.278;2023-06-26T06:50:00;101051.63;;;20.96;100.00
5996;BME280;3026;53.612;7.278;2023-06-26T06:52:36;101045.31;;;20.89;100.00
5996;BME280;3026;53.612;7.278;2023-06-26T06:55:04;101051.78;;;20.83;100.00
5996;BME280;3026;53.612;7.278;2023-06-26T06:57:34;101066.13;;;20.80;100.00
5996;BME280;3026;53.612;7.278;2023-06-26T07:00:04;101075.38;;;20.74;100.00
5996;BME280;3026;53.612;7.278;2023-06-26T07:02:34;101071.53;;;20.75;100.00
5996;BME280;3026;53.612;7.278;2023-06-26T07:05:00;101072.63;;;20.74;100.00
5996;BME280;3026;53.612;7.278;2023-06-26T07:07:29;101084.78;;;20.73;100.00
5996;BME280;3026;53.612;7.278;2023-06-26T07:09:58;101098.63;;;20.73;100.00
5996;BME280;3026;53.612;7.278;2023-06-26T07:12:25;101109.09;;;20.71;100.00
5996;BME280;3026;53.612;7.278;2023-06-26T07:14:52;101114.19;;;20.74;100.00
5996;BME280;3026;53.612;7.278;2023-06-26T07:17:19;101119.72;;;20.74;100.00
5996;BME280;3026;53.612;7.278;2023-06-26T07:19:47;101125.03;;;20.76;100.00
5996;BME280;3026;53.612;7.278;2023-06-26T07:22:13;101124.19;;;20.75;100.00
5996;BME280;3026;53.612;7.278;2023-06-26T07:24:40;101120.56;;;20.75;100.00
5996;BME280;3026;53.612;7.278;2023-06-26T07:27:09;101136.50;;;20.79;100.00
5996;BME280;3026;53.612;7.278;2023-06-26T07:29:36;101127.09;;;20.80;100.00
5996;BME280;3026;53.612;7.278;2023-06-26T07:32:03;101133.78;;;20.91;100.00
5996;BME280;3026;53.612;7.278;2023-06-26T07:34:30;101144.06;;;21.02;100.00
5996;BME280;3026;53.612;7.278;2023-06-26T07:36:57;101138.03;;;21.05;100.00
5996;BME280;3026;53.612;7.278;2023-06-26T07:39:24;101147.38;;;21.11;100.00
5996;BME280;3026;53.612;7.278;2023-06-26T07:41:50;101142.09;;;21.21;100.00
5996;BME280;3026;53.612;7.278;2023-06-26T07:44:19;101152.72;;;21.24;100.00
5996;BME280;3026;53.612;7.278;2023-06-26T07:46:46;101160.19;;;21.23;100.00
5996;BME280;3026;53.612;7.278;2023-06-26T07:49:12;101160.84;;;21.25;100.00
5996;BME280;3026;53.612;7.278;2023-06-26T07:51:40;101165.06;;;21.28;100.00
5996;BME280;3026;53.612;7.278;2023-06-26T07:54:07;101176.16;;;21.28;100.00
5996;BME280;3026;53.612;7.278;2023-06-26T07:56:52;101178.75;;;21.23;100.00
5996;BME280;3026;53.612;7.278;2023-06-26T07:59:21;101187.69;;;21.25;100.00
5996;BME280;3026;53.612;7.278;2023-06-26T08:01:50;101184.91;;;21.25;100.00
5996;BME280;3026;53.612;7.278;2023-06-26T08:04:18;101176.22;;;21.21;100.00
5996;BME280;3026;53.612;7.278;2023-06-26T08:06:45;101189.84;;;21.23;100.00
5996;BME280;3026;53.612;7.278;2023-06-26T08:09:12;101194.47;;;21.29;100.00
5996;BME280;3026;53.612;7.278;2023-06-26T08:11:39;101197.41;;;21.34;100.00
5996;BME280;3026;53.612;7.278;2023-06-26T08:14:06;101204.16;;;21.38;100.00
5996;BME280;3026;53.612;7.278;2023-06-26T08:16:34;101201.56;;;21.43;100.00
5996;BME280;3026;53.612;7.278;2023-06-26T08:19:01;101202.00;;;21.40;100.00
5996;BME280;3026;53.612;7.278;2023-06-26T08:21:28;101209.25;;;21.41;100.00
5996;BME280;3026;53.612;7.278;2023-06-26T08:23:54;101218.66;;;21.40;100.00
5996;BME280;3026;53.612;7.278;2023-06-26T08:26:21;101207.06;;;21.32;100.00
5996;BME280;3026;53.612;7.278;2023-06-26T08:28:48;101224.53;;;21.32;100.00
5996;BME280;3026;53.612;7.278;2023-06-26T08:31:15;101229.44;;;21.30;100.00
5996;BME280;3026;53.612;7.278;2023-06-26T08:33:44;101229.53;;;21.23;100.00
5996;BME280;3026;53.612;7.278;2023-06-26T08:36:11;101230.84;;;21.21;100.00
5996;BME280;3026;53.612;7.278;2023-06-26T08:38:38;101247.50;;;21.21;100.00
5996;BME280;3026;53.612;7.278;2023-06-26T08:41:06;101246.56;;;21.09;100.00
5996;BME280;3026;53.612;7.278;2023-06-26T08:43:34;101250.63;;;21.06;100.00
5996;BME280;3026;53.612;7.278;2023-06-26T08:46:01;101246.34;;;21.10;100.00
5996;BME280;3026;53.612;7.278;2023-06-26T08:48:31;101262.28;;;21.15;100.00
5996;BME280;3026;53.612;7.278;2023-06-26T08:51:01;101248.41;;;21.15;100.00
5996;BME280;3026;53.612;7.278;2023-06-26T08:53:39;101269.50;;;21.16;100.00
5996;BME280;3026;53.612;7.278;2023-06-26T08:56:08;101266.28;;;21.19;100.00
5996;BME280;3026;53.612;7.278;2023-06-26T08:58:35;101266.38;;;21.31;100.00
5996;BME280;3026;53.612;7.278;2023-06-26T09:01:04;101276.59;;;21.48;100.00
5996;BME280;3026;53.612;7.278;2023-06-26T09:03:31;101283.63;;;21.63;100.00
5996;BME280;3026;53.612;7.278;2023-06-26T09:05:59;101288.25;;;21.69;100.00
5996;BME280;3026;53.612;7.278;2023-06-26T09:08:26;101295.03;;;21.73;100.00
5996;BME280;3026;53.612;7.278;2023-06-26T09:10:53;101300.91;;;21.65;100.00
5996;BME280;3026;53.612;7.278;2023-06-26T09:13:20;101305.00;;;21.62;100.00
5996;BME280;3026;53.612;7.278;2023-06-26T09:15:47;101306.78;;;21.57;100.00
5996;BME280;3026;53.612;7.278;2023-06-26T09:18:17;101316.44;;;21.54;100.00
5996;BME280;3026;53.612;7.278;2023-06-26T09:20:44;101304.88;;;21.57;100.00
5996;BME280;3026;53.612;7.278;2023-06-26T09:23:13;101311.19;;;21.76;100.00
5996;BME280;3026;53.612;7.278;2023-06-26T09:25:40;101315.81;;;21.82;100.00
5996;BME280;3026;53.612;7.278;2023-06-26T09:28:08;101319.22;;;21.84;100.00
5996;BME280;3026;53.612;7.278;2023-06-26T09:30:36;101328.91;;;21.93;100.00
5996;BME280;3026;53.612;7.278;2023-06-26T09:33:14;101342.69;;;22.00;100.00
5996;BME280;3026;53.612;7.278;2023-06-26T09:35:41;101334.59;;;21.98;100.00
5996;BME280;3026;53.612;7.278;2023-06-26T09:38:07;101333.50;;;21.99;100.00
5996;BME280;3026;53.612;7.278;2023-06-26T09:40:36;101346.59;;;22.10;100.00
5996;BME280;3026;53.612;7.278;2023-06-26T09:43:04;101349.63;;;22.09;100.00
5996;BME280;3026;53.612;7.278;2023-06-26T09:45:31;101348.88;;;22.02;100.00
5996;BME280;3026;53.612;7.278;2023-06-26T09:48:00;101354.59;;;21.89;100.00
5996;BME280;3026;53.612;7.278;2023-06-26T09:50:28;101369.19;;;21.84;100.00
5996;BME280;3026;53.612;7.278;2023-06-26T09:52:57;101357.72;;;21.80;100.00
5996;BME280;3026;53.612;7.278;2023-06-26T09:55:25;101354.97;;;21.92;100.00
5996;BME280;3026;53.612;7.278;2023-06-26T09:57:56;101375.97;;;21.88;100.00
5996;BME280;3026;53.612;7.278;2023-06-26T10:00:23;101376.06;;;21.81;100.00
5996;BME280;3026;53.612;7.278;2023-06-26T10:02:50;101376.13;;;21.75;100.00
5996;BME280;3026;53.612;7.278;2023-06-26T10:05:17;101381.53;;;21.70;100.00
5996;BME280;3026;53.612;7.278;2023-06-26T10:07:44;101386.19;;;21.58;100.00
5996;BME280;3026;53.612;7.278;2023-06-26T10:10:12;101384.97;;;21.53;100.00
5996;BME280;3026;53.612;7.278;2023-06-26T10:12:39;101383.47;;;21.51;100.00
5996;BME280;3026;53.612;7.278;2023-06-26T10:15:08;101393.91;;;21.55;100.00
5996;BME280;3026;53.612;7.278;2023-06-26T10:17:42;101384.38;;;21.63;100.00
5996;BME280;3026;53.612;7.278;2023-06-26T10:20:10;101402.19;;;21.74;100.00
5996;BME280;3026;53.612;7.278;2023-06-26T10:22:44;101388.28;;;21.92;100.00
5996;BME280;3026;53.612;7.278;2023-06-26T10:25:12;101385.19;;;22.00;100.00
5996;BME280;3026;53.612;7.278;2023-06-26T10:27:44;101393.22;;;22.08;100.00
5996;BME280;3026;53.612;7.278;2023-06-26T10:30:24;101389.16;;;22.23;100.00
5996;BME280;3026;53.612;7.278;2023-06-26T10:32:54;101406.09;;;22.33;100.00
5996;BME280;3026;53.612;7.278;2023-06-26T10:35:21;101399.31;;;22.29;100.00
5996;BME280;3026;53.612;7.278;2023-06-26T10:37:50;101406.28;;;22.20;100.00
5996;BME280;3026;53.612;7.278;2023-06-26T10:40:21;101405.81;;;22.23;100.00
5996;BME280;3026;53.612;7.278;2023-06-26T10:42:48;101414.88;;;22.18;100.00
5996;BME280;3026;53.612;7.278;2023-06-26T10:45:19;101426.09;;;22.11;100.00
5996;BME280;3026;53.612;7.278;2023-06-26T10:47:47;101418.88;;;22.04;100.00
5996;BME280;3026;53.612;7.278;2023-06-26T10:50:19;101418.03;;;22.03;100.00
5996;BME280;3026;53.612;7.278;2023-06-26T10:53:14;101409.44;;;22.11;100.00
5996;BME280;3026;53.612;7.278;2023-06-26T10:55:48;101419.03;;;22.27;100.00
5996;BME280;3026;53.612;7.278;2023-06-26T10:58:32;101421.72;;;22.46;100.00
5996;BME280;3026;53.612;7.278;2023-06-26T11:01:18;101437.44;;;22.52;100.00
5996;BME280;3026;53.612;7.278;2023-06-26T11:03:46;101428.50;;;22.50;100.00
5996;BME280;3026;53.612;7.278;2023-06-26T11:06:17;101426.13;;;22.65;100.00
5996;BME280;3026;53.612;7.278;2023-06-26T11:08:45;101442.81;;;22.77;100.00
5996;BME280;3026;53.612;7.278;2023-06-26T11:11:12;101451.28;;;22.70;100.00
5996;BME280;3026;53.612;7.278;2023-06-26T11:13:40;101452.59;;;22.67;100.00
5996;BME280;3026;53.612;7.278;2023-06-26T11:16:07;101457.81;;;22.76;100.00
5996;BME280;3026;53.612;7.278;2023-06-26T11:18:35;101468.66;;;22.65;100.00
5996;BME280;3026;53.612;7.278;2023-06-26T11:21:06;101463.44;;;22.57;100.00
5996;BME280;3026;53.612;7.278;2023-06-26T11:23:34;101476.72;;;22.55;100.00
5996;BME280;3026;53.612;7.278;2023-06-26T11:26:20;101468.09;;;22.45;100.00
5996;BME280;3026;53.612;7.278;2023-06-26T11:28:48;101466.09;;;22.52;100.00
5996;BME280;3026;53.612;7.278;2023-06-26T11:31:25;101477.13;;;22.59;100.00
5996;BME280;3026;53.612;7.278;2023-06-26T11:33:54;101474.09;;;22.60;100.00
5996;BME280;3026;53.612;7.278;2023-06-26T11:36:23;101475.50;;;22.51;100.00
5996;BME280;3026;53.612;7.278;2023-06-26T11:38:53;101472.13;;;22.49;100.00
5996;BME280;3026;53.612;7.278;2023-06-26T11:41:20;101476.28;;;22.58;100.00
5996;BME280;3026;53.612;7.278;2023-06-26T11:43:47;101482.31;;;22.67;100.00
5996;BME280;3026;53.612;7.278;2023-06-26T11:46:16;101486.44;;;22.64;100.00
5996;BME280;3026;53.612;7.278;2023-06-26T11:48:43;101488.13;;;22.65;100.00
5996;BME280;3026;53.612;7.278;2023-06-26T11:51:12;101487.63;;;22.68;100.00
5996;BME280;3026;53.612;7.278;2023-06-26T11:53:40;101495.84;;;22.63;100.00
5996;BME280;3026;53.612;7.278;2023-06-26T11:56:08;101504.56;;;22.67;100.00
5996;BME280;3026;53.612;7.278;2023-06-26T11:58:35;101493.59;;;22.72;100.00
5996;BME280;3026;53.612;7.278;2023-06-26T12:01:02;101491.78;;;22.78;100.00
5996;BME280;3026;53.612;7.278;2023-06-26T12:03:29;101498.13;;;22.85;100.00
5996;BME280;3026;53.612;7.278;2023-06-26T12:05:58;101501.50;;;22.87;100.00
5996;BME280;3026;53.612;7.278;2023-06-26T12:08:28;101504.91;;;22.89;100.00
5996;BME280;3026;53.612;7.278;2023-06-26T12:10:55;101508.16;;;22.86;100.00
5996;BME280;3026;53.612;7.278;2023-06-26T12:13:22;101522.75;;;22.81;100.00
5996;BME280;3026;53.612;7.278;2023-06-26T12:15:49;101523.44;;;22.77;100.00
5996;BME280;3026;53.612;7.278;2023-06-26T12:18:16;101513.75;;;22.67;100.00
5996;BME280;3026;53.612;7.278;2023-06-26T12:20:43;101518.56;;;22.60;100.00
5996;BME280;3026;53.612;7.278;2023-06-26T12:23:12;101522.31;;;22.66;100.00
5996;BME280;3026;53.612;7.278;2023-06-26T12:25:41;101529.97;;;22.70;100.00
5996;BME280;3026;53.612;7.278;2023-06-26T12:28:16;101530.91;;;22.64;100.00
5996;BME280;3026;53.612;7.278;2023-06-26T12:30:46;101514.72;;;22.61;100.00
5996;BME280;3026;53.612;7.278;2023-06-26T12:33:14;101523.16;;;22.66;100.00
5996;BME280;3026;53.612;7.278;2023-06-26T12:35:41;101540.47;;;22.68;100.00
5996;BME280;3026;53.612;7.278;2023-06-26T12:38:08;101540.31;;;22.63;100.00
5996;BME280;3026;53.612;7.278;2023-06-26T12:40:46;101551.75;;;22.55;100.00
5996;BME280;3026;53.612;7.278;2023-06-26T12:43:22;101550.78;;;22.50;100.00
5996;BME280;3026;53.612;7.278;2023-06-26T12:45:54;101561.97;;;22.43;100.00
5996;BME280;3026;53.612;7.278;2023-06-26T12:48:21;101549.47;;;22.34;100.00
5996;BME280;3026;53.612;7.278;2023-06-26T12:50:47;101538.22;;;22.29;100.00
5996;BME280;3026;53.612;7.278;2023-06-26T12:53:16;101529.66;;;22.30;100.00
5996;BME280;3026;53.612;7.278;2023-06-26T12:55:42;101532.81;;;22.34;100.00
5996;BME280;3026;53.612;7.278;2023-06-26T12:58:11;101536.84;;;22.38;100.00
5996;BME280;3026;53.612;7.278;2023-06-26T13:00:37;101543.63;;;22.42;100.00
5996;BME280;3026;53.612;7.278;2023-06-26T13:03:04;101534.19;;;22.43;100.00
5996;BME280;3026;53.612;7.278;2023-06-26T13:05:31;101530.31;;;22.44;100.00